< < Back
Terminal Aerodrome Forecast


Current Version              Previous Versions:   1  2  3  4  5  6  7  8  9  

Terminal Aerodrome Forecast

751
FTUS42 KTAE 231700 RRA
TAFVLD
TAF
KVLD 231747Z 2318/2418 32005KT P6SM BKN040
     FM240100 00000KT P6SM SKC
      TEMPO 2409/2412 5SM BR
     FM241400 VRB04KT P6SM SKC=

Latest METAR

391
SAUS70 KWBC 231900 RRD
MTRVLD
METAR KVLD 231853Z VRB04KT 10SM FEW045 29/16 A2990 RMK AO2 SLP130
T02890156


USA.gov is the U.S. government's official web portal to all federal, state and local government web resources and services.